createdAt,value
2018-02-22T00:00:29.003Z,0.00
2018-02-22T00:01:29.081Z,0.00
2018-02-22T00:02:29.138Z,0.00
2018-02-22T00:03:29.214Z,0.00
2018-02-22T00:04:29.267Z,0.00
2018-02-22T00:05:29.327Z,0.00
2018-02-22T00:06:29.394Z,0.00
2018-02-22T00:07:29.458Z,0.00
2018-02-22T00:08:29.526Z,0.00
2018-02-22T00:09:29.597Z,0.00
2018-02-22T00:10:29.658Z,0.00
2018-02-22T00:11:29.730Z,0.00
2018-02-22T00:12:29.785Z,0.00
2018-02-22T00:13:29.848Z,0.00
2018-02-22T00:14:29.907Z,0.00
2018-02-22T00:15:29.973Z,0.00
2018-02-22T00:16:30.057Z,0.00
2018-02-22T00:17:30.112Z,0.00
2018-02-22T00:18:30.168Z,0.00
2018-02-22T00:19:30.238Z,0.00
2018-02-22T00:20:30.301Z,0.00
2018-02-22T00:21:30.395Z,0.00
2018-02-22T00:22:30.434Z,0.00
2018-02-22T00:23:30.493Z,0.00
2018-02-22T00:24:30.562Z,0.00
2018-02-22T00:25:30.626Z,0.00
2018-02-22T00:26:30.684Z,0.00
2018-02-22T00:27:30.758Z,0.00
2018-02-22T00:28:30.818Z,0.00
2018-02-22T00:29:30.878Z,0.00
2018-02-22T00:30:30.943Z,0.00
2018-02-22T00:31:31.022Z,0.00
2018-02-22T00:32:31.090Z,0.00
2018-02-22T00:33:31.138Z,0.00
2018-02-22T00:34:31.226Z,0.00
2018-02-22T00:35:31.279Z,0.00
2018-02-22T00:36:31.334Z,0.00
2018-02-22T00:37:31.399Z,0.00
2018-02-22T00:38:31.462Z,0.00
2018-02-22T00:39:31.529Z,0.00
2018-02-22T00:40:31.591Z,0.00
2018-02-22T00:41:31.664Z,0.00
2018-02-22T00:42:31.723Z,0.00
2018-02-22T00:43:31.805Z,0.00
2018-02-22T00:44:31.853Z,0.00
2018-02-22T00:45:31.916Z,0.00
2018-02-22T00:46:31.979Z,0.00
2018-02-22T00:47:32.045Z,0.00
2018-02-22T00:48:32.120Z,0.00
2018-02-22T00:49:32.189Z,0.00
2018-02-22T00:50:32.245Z,0.00
2018-02-22T00:51:32.306Z,0.00
2018-02-22T00:52:32.371Z,0.00
2018-02-22T00:53:32.441Z,0.00
2018-02-22T00:54:32.508Z,0.00
2018-02-22T00:55:32.570Z,0.00
2018-02-22T00:56:32.634Z,0.00
2018-02-22T00:57:32.703Z,0.00
2018-02-22T00:58:32.764Z,0.00
2018-02-22T00:59:32.828Z,0.00
2018-02-22T01:00:32.891Z,0.00
2018-02-22T01:01:32.947Z,0.00
2018-02-22T01:02:33.008Z,0.00
2018-02-22T01:03:33.087Z,0.00
2018-02-22T01:04:33.141Z,0.00
2018-02-22T01:05:33.220Z,0.00
2018-02-22T01:06:33.277Z,0.00
2018-02-22T01:07:33.338Z,0.00
2018-02-22T01:08:33.403Z,0.00
2018-02-22T01:09:33.467Z,0.00
2018-02-22T01:10:33.531Z,0.00
2018-02-22T01:11:33.596Z,0.00
2018-02-22T01:12:38.627Z,0.00
2018-02-22T01:13:33.725Z,0.00
2018-02-22T01:14:33.790Z,0.00
2018-02-22T01:15:33.870Z,0.00
2018-02-22T01:16:33.923Z,0.00
2018-02-22T01:17:33.989Z,0.00
2018-02-22T01:18:34.046Z,0.00
2018-02-22T01:19:34.112Z,0.00
2018-02-22T01:20:34.177Z,0.00
2018-02-22T01:21:34.244Z,0.00
2018-02-22T01:22:34.303Z,0.00
2018-02-22T01:23:34.369Z,0.00
2018-02-22T01:24:34.527Z,0.00
2018-02-22T01:25:34.501Z,0.00
2018-02-22T01:26:34.570Z,0.00
2018-02-22T01:27:34.631Z,0.00
2018-02-22T01:28:34.694Z,0.00
2018-02-22T01:29:34.758Z,0.00
2018-02-22T01:30:34.817Z,0.00
2018-02-22T01:31:34.886Z,0.00
2018-02-22T01:32:34.953Z,0.00
2018-02-22T01:33:35.017Z,0.00
2018-02-22T01:34:35.081Z,0.00
2018-02-22T01:35:35.142Z,0.00
2018-02-22T01:36:35.220Z,0.00
2018-02-22T01:37:35.276Z,0.00
2018-02-22T01:38:35.336Z,0.00
2018-02-22T01:39:35.406Z,0.00
2018-02-22T01:40:35.465Z,0.00
2018-02-22T01:41:35.531Z,0.00
2018-02-22T01:42:35.600Z,0.00
2018-02-22T01:43:35.659Z,0.00
2018-02-22T01:44:35.734Z,0.00
2018-02-22T01:45:35.792Z,0.00
2018-02-22T01:46:35.849Z,0.00
2018-02-22T01:47:35.920Z,0.00
2018-02-22T01:48:35.976Z,0.00
2018-02-22T01:49:36.065Z,0.00
2018-02-22T01:50:36.113Z,0.00
2018-02-22T01:51:36.179Z,0.00
2018-02-22T01:52:36.234Z,0.00
2018-02-22T01:53:36.315Z,0.00
2018-02-22T01:54:36.374Z,0.00
2018-02-22T01:55:36.436Z,0.00
2018-02-22T01:56:36.499Z,0.00
2018-02-22T01:57:36.561Z,0.00
2018-02-22T01:58:36.632Z,0.00
2018-02-22T01:59:36.697Z,0.00
2018-02-22T02:00:36.760Z,0.00
2018-02-22T02:01:36.819Z,0.00
2018-02-22T02:02:36.908Z,0.00
2018-02-22T02:03:36.952Z,0.00
2018-02-22T02:04:37.010Z,0.00
2018-02-22T02:05:37.080Z,0.00
2018-02-22T02:06:37.142Z,0.00
2018-02-22T02:07:37.208Z,0.00
2018-02-22T02:08:37.279Z,0.00
2018-02-22T02:09:37.337Z,0.00
2018-02-22T02:10:37.404Z,0.00
2018-02-22T02:11:37.467Z,0.00
2018-02-22T02:12:37.536Z,0.00
2018-02-22T02:13:37.596Z,0.00
2018-02-22T02:14:37.656Z,0.00
2018-02-22T02:15:37.721Z,0.00
2018-02-22T02:16:37.787Z,0.00
2018-02-22T02:17:37.862Z,0.00
2018-02-22T02:18:37.911Z,0.00
2018-02-22T02:19:37.986Z,0.00
2018-02-22T02:20:38.053Z,0.00
2018-02-22T02:21:38.116Z,0.00
2018-02-22T02:22:38.180Z,0.00
2018-02-22T02:23:38.232Z,0.00
2018-02-22T02:24:38.308Z,0.00
2018-02-22T02:25:38.369Z,0.00
2018-02-22T02:26:38.433Z,0.00
2018-02-22T02:27:38.512Z,0.00
2018-02-22T02:28:38.570Z,0.00
2018-02-22T02:29:38.623Z,0.00
2018-02-22T02:30:38.699Z,0.00
2018-02-22T02:31:38.762Z,0.00
2018-02-22T02:32:38.886Z,0.00
2018-02-22T02:33:38.887Z,0.00
2018-02-22T02:34:38.960Z,0.00
2018-02-22T02:35:39.012Z,0.00
2018-02-22T02:36:39.077Z,0.00
2018-02-22T02:37:39.137Z,0.00
2018-02-22T02:38:39.206Z,0.00
2018-02-22T02:39:39.265Z,0.00
2018-02-22T02:40:39.338Z,0.00
2018-02-22T02:41:39.396Z,0.00
2018-02-22T02:42:39.470Z,0.00
2018-02-22T02:43:39.526Z,0.00
2018-02-22T02:44:39.598Z,0.00
2018-02-22T02:45:39.654Z,0.00
2018-02-22T02:46:39.728Z,0.00
2018-02-22T02:47:39.793Z,0.00
2018-02-22T02:48:39.853Z,0.00
2018-02-22T02:49:39.921Z,0.00
2018-02-22T02:50:39.979Z,0.00
2018-02-22T02:51:40.045Z,0.00
2018-02-22T02:52:40.113Z,0.00
2018-02-22T02:53:40.172Z,0.00
2018-02-22T02:54:40.245Z,0.00
2018-02-22T02:55:40.301Z,0.00
2018-02-22T02:56:40.364Z,0.00
2018-02-22T02:57:40.421Z,0.00
2018-02-22T02:58:40.517Z,0.00
2018-02-22T02:59:40.562Z,0.00
2018-02-22T03:00:40.627Z,0.00
2018-02-22T03:01:40.687Z,0.00
2018-02-22T03:02:40.779Z,0.00
2018-02-22T03:03:40.812Z,0.00
2018-02-22T03:04:40.875Z,0.00
2018-02-22T03:05:40.944Z,0.00
2018-02-22T03:06:41.006Z,0.00
2018-02-22T03:07:41.074Z,0.00
2018-02-22T03:08:41.136Z,0.00
2018-02-22T03:09:41.193Z,0.00
2018-02-22T03:10:41.261Z,0.00
2018-02-22T03:11:41.325Z,0.00
2018-02-22T03:12:41.393Z,0.00
2018-02-22T03:13:41.457Z,0.00
2018-02-22T03:14:41.524Z,0.00
2018-02-22T03:15:41.590Z,0.00
2018-02-22T03:16:41.647Z,0.00
2018-02-22T03:17:41.715Z,0.00
2018-02-22T03:18:41.775Z,0.00
2018-02-22T03:19:41.836Z,0.00
2018-02-22T03:20:41.919Z,0.00
2018-02-22T03:21:41.967Z,0.00
2018-02-22T03:22:42.028Z,0.00
2018-02-22T03:23:42.110Z,0.00
2018-02-22T03:24:42.163Z,0.00
2018-02-22T03:25:42.223Z,0.00
2018-02-22T03:26:42.298Z,0.00
2018-02-22T03:27:42.355Z,0.00
2018-02-22T03:28:42.419Z,0.00
2018-02-22T03:29:42.481Z,0.00
2018-02-22T03:30:42.542Z,0.00
2018-02-22T03:31:42.611Z,0.00
2018-02-22T03:32:42.673Z,0.00
2018-02-22T03:33:42.738Z,0.00
2018-02-22T03:34:42.800Z,0.00
2018-02-22T03:35:42.854Z,0.00
2018-02-22T03:36:42.939Z,0.00
2018-02-22T03:37:42.994Z,0.00
2018-02-22T03:38:43.054Z,0.00
2018-02-22T03:39:43.141Z,0.00
2018-02-22T03:40:43.188Z,0.00
2018-02-22T03:41:43.254Z,0.00
2018-02-22T03:42:43.322Z,0.00
2018-02-22T03:43:43.377Z,0.00
2018-02-22T03:44:43.437Z,0.00
2018-02-22T03:45:43.509Z,0.00
2018-02-22T03:46:43.590Z,0.00
2018-02-22T03:47:43.670Z,0.00
2018-02-22T03:48:43.694Z,0.00
2018-02-22T03:49:43.770Z,0.00
2018-02-22T03:50:43.970Z,0.00
2018-02-22T03:51:43.893Z,0.00
2018-02-22T03:52:43.965Z,0.00
2018-02-22T03:53:44.019Z,0.00
2018-02-22T03:54:44.084Z,0.00
2018-02-22T03:55:44.161Z,0.00
2018-02-22T03:56:44.213Z,0.00
2018-02-22T03:57:44.278Z,0.00
2018-02-22T03:58:44.372Z,0.00
2018-02-22T03:59:44.405Z,0.00
2018-02-22T04:00:44.468Z,0.00
2018-02-22T04:01:44.549Z,0.00
2018-02-22T04:02:44.590Z,0.00
2018-02-22T04:03:44.666Z,0.00
2018-02-22T04:04:44.730Z,0.00
2018-02-22T04:05:44.807Z,0.00
2018-02-22T04:06:44.858Z,0.00
2018-02-22T04:07:44.927Z,0.00
2018-02-22T04:08:44.987Z,0.00
2018-02-22T04:09:45.049Z,0.00
2018-02-22T04:10:45.114Z,0.00
2018-02-22T04:11:45.172Z,0.00
2018-02-22T04:12:45.247Z,0.00
2018-02-22T04:13:45.294Z,0.00
2018-02-22T04:14:45.364Z,0.00
2018-02-22T04:15:45.430Z,0.00
2018-02-22T04:16:45.494Z,0.00
2018-02-22T04:17:45.553Z,0.00
2018-02-22T04:18:45.642Z,0.00
2018-02-22T04:19:45.702Z,0.00
2018-02-22T04:20:45.754Z,0.00
2018-02-22T04:21:45.809Z,0.00
2018-02-22T04:22:45.876Z,0.00
2018-02-22T04:23:45.944Z,0.00
2018-02-22T04:24:46.009Z,0.00
2018-02-22T04:25:46.075Z,0.00
2018-02-22T04:26:46.138Z,0.00
2018-02-22T04:27:46.194Z,0.00
2018-02-22T04:28:46.262Z,0.00
2018-02-22T04:29:46.330Z,0.00
2018-02-22T04:30:46.401Z,0.00
2018-02-22T04:31:46.461Z,0.00
2018-02-22T04:32:46.529Z,0.00
2018-02-22T04:33:46.585Z,0.00
2018-02-22T04:34:46.644Z,0.00
2018-02-22T04:35:46.717Z,0.00
2018-02-22T04:36:46.770Z,0.00
2018-02-22T04:37:46.839Z,0.00
2018-02-22T04:38:46.900Z,0.00
2018-02-22T04:39:46.967Z,0.00
2018-02-22T04:40:47.032Z,0.00
2018-02-22T04:41:47.131Z,0.00
2018-02-22T04:42:47.163Z,0.00
2018-02-22T04:43:47.218Z,0.00
2018-02-22T04:44:47.287Z,0.00
2018-02-22T04:45:47.352Z,0.00
2018-02-22T04:46:47.424Z,0.00
2018-02-22T04:47:47.478Z,0.00
2018-02-22T04:48:47.541Z,0.00
2018-02-22T04:49:47.608Z,0.00
2018-02-22T04:50:47.673Z,0.00
2018-02-22T04:51:47.736Z,0.00
2018-02-22T04:52:47.791Z,0.00
2018-02-22T04:53:47.874Z,0.00
2018-02-22T04:54:47.922Z,0.00
2018-02-22T04:55:47.985Z,0.00
2018-02-22T04:56:48.062Z,0.00
2018-02-22T04:57:48.118Z,0.00
2018-02-22T04:58:48.172Z,0.00
2018-02-22T04:59:48.252Z,0.00
2018-02-22T05:00:48.304Z,0.00
2018-02-22T05:01:48.383Z,0.00
2018-02-22T05:02:48.431Z,0.00
2018-02-22T05:03:48.502Z,0.00
2018-02-22T05:04:48.565Z,0.00
2018-02-22T05:05:48.628Z,0.00
2018-02-22T05:06:48.691Z,0.00
2018-02-22T05:07:48.756Z,0.00
2018-02-22T05:08:48.820Z,0.00
2018-02-22T05:09:48.886Z,0.00
2018-02-22T05:10:48.952Z,0.00
2018-02-22T05:11:49.005Z,0.00
2018-02-22T05:12:49.077Z,0.00
2018-02-22T05:13:49.138Z,0.00
2018-02-22T05:14:49.201Z,0.00
2018-02-22T05:15:49.271Z,0.00
2018-02-22T05:16:49.336Z,0.00
2018-02-22T05:17:49.427Z,0.00
2018-02-22T05:18:49.464Z,0.00
2018-02-22T05:19:49.524Z,0.00
2018-02-22T05:20:49.584Z,0.00
2018-02-22T05:21:49.648Z,0.00
2018-02-22T05:22:49.721Z,0.00
2018-02-22T05:23:49.785Z,0.00
2018-02-22T05:24:49.842Z,0.00
2018-02-22T05:25:49.905Z,0.00
2018-02-22T05:26:49.969Z,0.00
2018-02-22T05:27:50.031Z,0.00
2018-02-22T05:28:50.098Z,0.00
2018-02-22T05:29:50.161Z,0.00
2018-02-22T05:30:50.228Z,0.00
2018-02-22T05:31:50.295Z,0.00
2018-02-22T05:32:50.356Z,0.00
2018-02-22T05:33:50.420Z,0.00
2018-02-22T05:34:50.472Z,0.00
2018-02-22T05:35:50.551Z,0.00
2018-02-22T05:36:50.608Z,0.00
2018-02-22T05:37:50.671Z,0.00
2018-02-22T05:38:50.736Z,0.00
2018-02-22T05:39:50.804Z,0.00
2018-02-22T05:40:50.868Z,0.00
2018-02-22T05:41:50.923Z,0.00
2018-02-22T05:42:51.001Z,0.00
2018-02-22T05:43:51.053Z,0.00
2018-02-22T05:44:51.121Z,0.00
2018-02-22T05:45:51.191Z,0.00
2018-02-22T05:46:51.250Z,0.00
2018-02-22T05:47:51.313Z,0.00
2018-02-22T05:48:51.380Z,0.00
2018-02-22T05:49:51.470Z,0.00
2018-02-22T05:50:51.511Z,0.00
2018-02-22T05:51:51.717Z,4.00
2018-02-22T05:52:51.640Z,4.00
2018-02-22T05:53:51.700Z,0.00
2018-02-22T05:54:51.757Z,4.00
2018-02-22T05:55:51.819Z,0.00
2018-02-22T05:56:51.883Z,4.00
2018-02-22T05:57:52.010Z,4.00
2018-02-22T05:58:52.010Z,4.00
2018-02-22T05:59:52.081Z,4.00
2018-02-22T06:00:52.153Z,8.00
2018-02-22T06:01:52.204Z,12.00
2018-02-22T06:02:52.269Z,12.00
2018-02-22T06:03:52.335Z,16.00
2018-02-22T06:04:52.399Z,16.00
2018-02-22T06:05:52.469Z,16.00
2018-02-22T06:06:52.529Z,24.00
2018-02-22T06:07:52.580Z,28.00
2018-02-22T06:08:52.667Z,32.00
2018-02-22T06:09:52.712Z,40.00
2018-02-22T06:10:52.778Z,44.00
2018-02-22T06:11:52.847Z,52.00
2018-02-22T06:12:52.913Z,64.00
2018-02-22T06:13:53.005Z,72.00
2018-02-22T06:14:53.031Z,84.00
2018-02-22T06:15:53.103Z,96.00
2018-02-22T06:16:53.178Z,112.00
2018-02-22T06:17:53.231Z,128.00
2018-02-22T06:18:53.290Z,148.00
2018-02-22T06:19:53.357Z,168.00
2018-02-22T06:20:53.418Z,192.00
2018-02-22T06:21:53.488Z,212.00
2018-02-22T06:22:53.543Z,240.00
2018-02-22T06:23:53.599Z,268.00
2018-02-22T06:24:53.670Z,300.00
2018-02-22T06:25:53.737Z,328.00
2018-02-22T06:26:53.801Z,368.00
2018-02-22T06:27:53.862Z,400.00
2018-02-22T06:28:53.932Z,440.00
2018-02-22T06:29:53.990Z,480.00
2018-02-22T06:30:54.053Z,520.00
2018-02-22T06:31:54.116Z,568.00
2018-02-22T06:32:54.180Z,616.00
2018-02-22T06:33:54.251Z,672.00
2018-02-22T06:34:54.305Z,724.00
2018-02-22T06:35:54.374Z,788.00
2018-02-22T06:36:54.432Z,848.00
2018-02-22T06:37:54.505Z,912.00
2018-02-22T06:38:54.561Z,980.00
2018-02-22T06:39:54.636Z,1044.00
2018-02-22T06:40:54.690Z,1116.00
2018-02-22T06:41:54.752Z,1172.00
2018-02-22T06:42:54.812Z,1216.00
2018-02-22T06:43:54.894Z,1268.00
2018-02-22T06:44:54.972Z,1332.00
2018-02-22T06:45:55.007Z,1428.00
2018-02-22T06:46:55.066Z,1564.00
2018-02-22T06:47:55.137Z,1732.00
2018-02-22T06:48:55.198Z,1880.00
2018-02-22T06:49:55.264Z,1984.00
2018-02-22T06:50:55.348Z,2088.00
2018-02-22T06:51:55.432Z,2212.00
2018-02-22T06:52:55.458Z,2344.00
2018-02-22T06:53:55.518Z,2460.00
2018-02-22T06:54:55.578Z,2488.00
2018-02-22T06:55:55.684Z,2468.00
2018-02-22T06:56:55.712Z,2560.00
2018-02-22T06:57:55.781Z,2832.00
2018-02-22T06:58:55.860Z,3140.00
2018-02-22T06:59:55.899Z,3344.00
2018-02-22T07:00:55.992Z,3496.00
2018-02-22T07:01:56.065Z,3636.00
2018-02-22T07:02:56.096Z,3780.00
2018-02-22T07:03:56.160Z,3928.00
2018-02-22T07:04:56.224Z,4068.00
2018-02-22T07:05:56.323Z,4216.00
2018-02-22T07:06:56.374Z,4376.00
2018-02-22T07:07:56.407Z,4520.00
2018-02-22T07:08:56.506Z,4676.00
2018-02-22T07:09:56.557Z,4828.00
2018-02-22T07:10:56.610Z,4968.00
2018-02-22T07:11:56.683Z,5136.00
2018-02-22T07:12:57.071Z,5308.00
2018-02-22T07:13:56.815Z,5456.00
2018-02-22T07:14:56.865Z,5608.00
2018-02-22T07:15:56.928Z,5716.00
2018-02-22T07:16:56.986Z,5876.00
2018-02-22T07:17:57.049Z,6024.00
2018-02-22T07:18:57.127Z,6236.00
2018-02-22T07:19:57.181Z,7044.00
2018-02-22T07:20:57.245Z,8980.00
2018-02-22T07:21:57.315Z,10292.00
2018-02-22T07:22:57.383Z,12364.00
2018-02-22T07:23:57.438Z,14304.00
2018-02-22T07:24:57.502Z,18112.00
2018-02-22T07:25:57.571Z,20896.00
2018-02-22T07:26:57.647Z,25536.00
2018-02-22T07:27:57.707Z,30432.00
2018-02-22T07:28:57.770Z,33056.00
2018-02-22T07:29:57.838Z,36768.00
2018-02-22T07:30:57.894Z,37440.00
2018-02-22T07:31:57.961Z,39264.00
2018-02-22T07:32:58.025Z,42720.00
2018-02-22T07:33:58.097Z,42976.00
2018-02-22T07:34:58.172Z,43456.00
2018-02-22T07:35:58.227Z,43424.00
2018-02-22T07:36:58.288Z,45536.00
2018-02-22T07:37:58.365Z,45728.00
2018-02-22T07:38:58.440Z,46400.00
2018-02-22T07:39:58.502Z,47520.00
2018-02-22T07:40:58.586Z,46752.00
2018-02-22T07:41:58.644Z,50016.00
2018-02-22T07:42:58.736Z,51552.00
2018-02-22T07:43:58.791Z,52096.00
2018-02-22T07:44:58.864Z,53824.00
2018-02-22T07:45:58.938Z,55296.00
2018-02-22T07:46:59.001Z,54720.00
2018-02-22T07:47:59.063Z,56864.00
2018-02-22T07:48:59.143Z,58272.00
2018-02-22T07:49:59.212Z,58496.00
2018-02-22T07:50:59.292Z,60128.00
2018-02-22T07:51:59.368Z,60736.00
2018-02-22T07:52:59.428Z,60256.00
2018-02-22T07:53:59.520Z,61184.00
2018-02-22T07:54:59.586Z,61984.00
2018-02-22T07:55:59.671Z,61440.00
2018-02-22T07:56:59.729Z,60992.00
2018-02-22T07:57:59.803Z,61536.00
2018-02-22T07:58:59.876Z,63808.00
2018-02-22T08:00:00.000Z,65184.00
2018-02-22T08:01:00.396Z,65472.00
2018-02-22T08:02:00.102Z,65504.00
2018-02-22T08:03:00.189Z,67072.00
2018-02-22T08:04:00.256Z,66816.00
2018-02-22T08:05:00.347Z,66688.00
2018-02-22T08:06:00.427Z,68320.00
2018-02-22T08:07:00.499Z,68352.00
2018-02-22T08:08:00.568Z,69216.00
2018-02-22T08:09:00.648Z,68448.00
2018-02-22T08:10:00.728Z,69920.00
2018-02-22T08:11:00.812Z,69536.00
2018-02-22T08:12:00.879Z,72640.00
2018-02-22T08:13:00.959Z,71968.00
2018-02-22T08:14:01.054Z,70272.00
2018-02-22T08:15:01.117Z,69696.00
2018-02-22T08:16:01.197Z,71328.00
2018-02-22T08:17:01.267Z,71808.00
2018-02-22T08:18:01.347Z,72384.00
2018-02-22T08:19:01.432Z,73376.00
2018-02-22T08:20:01.497Z,74432.00
2018-02-22T08:21:01.581Z,71232.00
2018-02-22T08:22:01.655Z,72928.00
2018-02-22T08:23:01.733Z,76096.00
2018-02-22T08:24:01.833Z,73344.00
2018-02-22T08:25:01.898Z,71200.00
2018-02-22T08:26:01.979Z,70752.00
2018-02-22T08:27:02.185Z,71904.00
2018-02-22T08:28:02.143Z,70944.00
2018-02-22T08:29:02.210Z,72128.00
2018-02-22T08:30:02.290Z,79584.00
2018-02-22T08:31:02.364Z,80672.00
2018-02-22T08:32:02.458Z,68832.00
2018-02-22T08:33:02.528Z,61440.00
2018-02-22T08:34:02.620Z,64064.00
2018-02-22T08:35:02.689Z,70272.00
2018-02-22T08:36:02.773Z,74656.00
2018-02-22T08:37:02.867Z,74720.00
2018-02-22T08:38:02.937Z,67936.00
2018-02-22T08:39:03.007Z,57056.00
2018-02-22T08:40:03.130Z,48992.00
2018-02-22T08:41:03.164Z,47200.00
2018-02-22T08:42:08.187Z,46720.00
2018-02-22T08:43:03.335Z,49664.00
2018-02-22T08:44:03.408Z,47424.00
2018-02-22T08:45:03.502Z,42880.00
2018-02-22T08:46:03.559Z,42752.00
2018-02-22T08:47:03.650Z,30720.00
2018-02-22T08:48:03.728Z,21952.00
2018-02-22T08:49:03.802Z,21632.00
2018-02-22T08:50:03.870Z,23808.00
2018-02-22T08:51:03.961Z,30496.00
2018-02-22T08:52:04.037Z,52704.00
2018-02-22T08:53:04.574Z,64672.00
2018-02-22T08:54:04.179Z,53952.00
2018-02-22T08:55:04.434Z,53536.00
2018-02-22T08:56:04.742Z,68064.00
2018-02-22T08:57:04.401Z,60096.00
2018-02-22T08:58:05.244Z,37216.00
2018-02-22T08:59:04.952Z,36352.00
2018-02-22T09:00:04.790Z,40448.00
2018-02-22T09:01:04.704Z,26720.00
2018-02-22T09:02:04.777Z,47296.00
2018-02-22T09:03:04.863Z,63552.00
2018-02-22T09:04:05.276Z,57664.00
2018-02-22T09:05:05.466Z,34080.00
2018-02-22T09:06:05.084Z,22336.00
2018-02-22T09:07:05.155Z,22240.00
2018-02-22T09:08:05.833Z,16048.00
2018-02-22T09:09:05.323Z,42496.00
2018-02-22T09:10:05.748Z,44096.00
2018-02-22T09:11:05.828Z,32672.00
2018-02-22T09:12:05.577Z,30112.00
2018-02-22T09:13:05.688Z,48288.00
2018-02-22T09:14:06.129Z,55424.00
2018-02-22T09:15:06.222Z,56064.00
2018-02-22T09:16:06.166Z,61504.00
2018-02-22T09:17:05.942Z,57408.00
2018-02-22T09:18:05.974Z,28544.00
2018-02-22T09:19:06.554Z,28832.00
2018-02-22T09:20:07.655Z,49792.00
2018-02-22T09:21:06.562Z,51040.00
2018-02-22T09:22:06.282Z,47872.00
2018-02-22T09:23:06.344Z,36864.00
2018-02-22T09:24:06.429Z,35008.00
2018-02-22T09:25:06.498Z,35744.00
2018-02-22T09:26:06.572Z,32672.00
2018-02-22T09:27:06.654Z,30752.00
2018-02-22T09:28:06.733Z,38880.00
2018-02-22T09:29:06.800Z,34784.00
2018-02-22T09:30:07.063Z,40224.00
2018-02-22T09:31:06.948Z,48064.00
2018-02-22T09:32:07.024Z,53952.00
2018-02-22T09:33:07.117Z,57024.00
2018-02-22T09:34:07.171Z,45280.00
2018-02-22T09:35:07.240Z,48864.00
2018-02-22T09:36:07.322Z,43200.00
2018-02-22T09:37:07.441Z,34944.00
2018-02-22T09:38:07.473Z,43040.00
2018-02-22T09:39:07.552Z,37952.00
2018-02-22T09:40:07.619Z,39328.00
2018-02-22T09:41:07.681Z,73984.00
2018-02-22T09:42:07.790Z,79008.00
2018-02-22T09:43:07.859Z,67680.00
2018-02-22T09:44:07.913Z,70400.00
2018-02-22T09:45:07.995Z,76960.00
2018-02-22T09:46:08.073Z,73568.00
2018-02-22T09:47:08.149Z,55296.00
2018-02-22T09:48:08.207Z,41856.00
2018-02-22T09:49:08.293Z,48864.00
2018-02-22T09:50:08.365Z,50432.00
2018-02-22T09:51:08.441Z,57696.00
2018-02-22T09:52:08.515Z,44704.00
2018-02-22T09:53:08.592Z,37696.00
2018-02-22T09:54:08.672Z,46048.00
2018-02-22T09:55:08.744Z,60704.00
2018-02-22T09:56:08.846Z,53888.00
2018-02-22T09:57:08.908Z,75360.00
2018-02-22T09:58:09.002Z,84384.00
2018-02-22T09:59:09.051Z,68512.00
2018-02-22T10:00:09.142Z,77984.00
2018-02-22T10:01:09.202Z,81024.00
2018-02-22T10:02:09.306Z,77664.00
2018-02-22T10:03:09.399Z,81472.00
2018-02-22T10:04:09.482Z,75744.00
2018-02-22T10:05:09.519Z,78496.00
2018-02-22T10:06:09.596Z,73632.00
2018-02-22T10:07:09.684Z,77408.00
2018-02-22T10:08:09.754Z,92160.00
2018-02-22T10:09:09.850Z,94656.00
2018-02-22T10:10:09.902Z,96480.00
2018-02-22T10:11:09.977Z,93952.00
2018-02-22T10:12:10.072Z,91136.00
2018-02-22T10:13:10.166Z,89920.00
2018-02-22T10:14:10.266Z,90144.00
2018-02-22T10:15:10.289Z,91296.00
2018-02-22T10:16:10.368Z,92160.00
2018-02-22T10:17:10.452Z,89056.00
2018-02-22T10:18:10.539Z,88224.00
2018-02-22T10:19:10.614Z,92864.00
2018-02-22T10:20:10.700Z,93248.00
2018-02-22T10:21:10.807Z,91776.00
2018-02-22T10:22:10.862Z,91648.00
2018-02-22T10:23:10.967Z,94176.00
2018-02-22T10:24:11.035Z,95520.00
2018-02-22T10:25:11.109Z,96608.00
2018-02-22T10:26:11.302Z,94272.00
2018-02-22T10:27:11.300Z,92000.00
2018-02-22T10:28:11.360Z,94048.00
2018-02-22T10:29:11.431Z,91328.00
2018-02-22T10:30:11.524Z,88640.00
2018-02-22T10:31:11.610Z,92320.00
2018-02-22T10:32:11.721Z,90688.00
2018-02-22T10:33:11.771Z,88576.00
2018-02-22T10:34:11.863Z,89536.00
2018-02-22T10:35:11.922Z,88576.00
2018-02-22T10:36:12.009Z,88224.00
2018-02-22T10:37:12.420Z,86464.00
2018-02-22T10:38:12.188Z,85888.00
2018-02-22T10:39:12.351Z,85984.00
2018-02-22T10:40:12.362Z,85856.00
2018-02-22T10:41:12.451Z,87776.00
2018-02-22T10:42:17.213Z,88256.00
2018-02-22T10:43:12.600Z,85888.00
2018-02-22T10:44:12.681Z,87264.00
2018-02-22T10:45:12.769Z,85184.00
2018-02-22T10:46:12.869Z,85184.00
2018-02-22T10:47:12.940Z,84576.00
2018-02-22T10:48:13.017Z,84192.00
2018-02-22T10:49:13.110Z,82208.00
2018-02-22T10:50:13.194Z,82496.00
2018-02-22T10:51:13.282Z,81472.00
2018-02-22T10:52:13.371Z,83072.00
2018-02-22T10:53:13.445Z,84000.00
2018-02-22T10:54:13.548Z,82944.00
2018-02-22T10:55:13.680Z,80768.00
2018-02-22T10:56:13.700Z,80224.00
2018-02-22T10:57:13.818Z,80480.00
2018-02-22T10:58:13.882Z,80448.00
2018-02-22T10:59:13.976Z,81664.00
2018-02-22T11:00:14.779Z,75360.00
2018-02-22T11:01:14.152Z,78432.00
2018-02-22T11:02:14.222Z,77664.00
2018-02-22T11:03:14.482Z,76896.00
2018-02-22T11:04:14.390Z,79104.00
2018-02-22T11:05:14.490Z,76480.00
2018-02-22T11:06:14.566Z,78912.00
2018-02-22T11:07:14.653Z,78688.00
2018-02-22T11:08:14.736Z,78784.00
2018-02-22T11:09:14.816Z,75648.00
2018-02-22T11:10:14.911Z,76928.00
2018-02-22T11:11:15.010Z,79200.00
2018-02-22T11:12:19.727Z,77888.00
2018-02-22T11:13:15.164Z,78240.00
2018-02-22T11:14:15.246Z,75520.00
2018-02-22T11:15:15.334Z,73952.00
2018-02-22T11:16:15.417Z,76032.00
2018-02-22T11:17:15.509Z,75904.00
2018-02-22T11:18:15.597Z,73792.00
2018-02-22T11:19:15.671Z,74112.00
2018-02-22T11:20:15.763Z,72064.00
2018-02-22T11:21:15.852Z,71776.00
2018-02-22T11:22:15.949Z,72416.00
2018-02-22T11:23:16.024Z,71040.00
2018-02-22T11:24:16.116Z,69952.00
2018-02-22T11:25:16.210Z,71104.00
2018-02-22T11:26:16.273Z,74048.00
2018-02-22T11:27:16.357Z,71328.00
2018-02-22T11:28:16.489Z,69568.00
2018-02-22T11:29:16.558Z,71040.00
2018-02-22T11:30:16.630Z,71072.00
2018-02-22T11:31:16.703Z,71264.00
2018-02-22T11:32:16.794Z,69856.00
2018-02-22T11:33:16.882Z,67840.00
2018-02-22T11:34:16.971Z,67520.00
2018-02-22T11:35:17.054Z,66496.00
2018-02-22T11:36:17.137Z,66880.00
2018-02-22T11:37:18.058Z,67616.00
2018-02-22T11:38:17.319Z,68800.00
2018-02-22T11:39:17.393Z,68608.00
2018-02-22T11:40:17.487Z,67808.00
2018-02-22T11:41:17.597Z,65504.00
2018-02-22T11:42:17.656Z,64800.00
2018-02-22T11:43:17.724Z,65088.00
2018-02-22T11:44:17.812Z,65216.00
2018-02-22T11:45:17.900Z,66400.00
2018-02-22T11:46:17.981Z,65408.00
2018-02-22T11:47:18.061Z,64096.00
2018-02-22T11:48:18.153Z,67456.00
2018-02-22T11:49:18.233Z,62208.00
2018-02-22T11:50:18.324Z,61408.00
2018-02-22T11:51:18.442Z,64192.00
2018-02-22T11:52:18.505Z,63360.00
2018-02-22T11:53:18.566Z,61824.00
2018-02-22T11:54:18.658Z,61248.00
2018-02-22T11:55:18.761Z,62688.00
2018-02-22T11:56:18.822Z,63328.00
2018-02-22T11:57:18.897Z,62592.00
2018-02-22T11:58:19.032Z,19232.00
2018-02-22T11:59:19.073Z,39520.00
2018-02-22T12:00:19.164Z,18384.00
2018-02-22T12:01:19.250Z,50112.00
2018-02-22T12:02:19.327Z,55296.00
2018-02-22T12:03:19.396Z,59232.00
2018-02-22T12:04:19.487Z,47008.00
2018-02-22T12:05:19.574Z,23424.00
2018-02-22T12:06:19.693Z,57536.00
2018-02-22T12:07:19.728Z,57568.00
2018-02-22T12:08:19.816Z,54656.00
2018-02-22T12:09:19.897Z,57984.00
2018-02-22T12:10:20.000Z,55168.00
2018-02-22T12:11:20.085Z,22912.00
2018-02-22T12:12:24.103Z,52096.00
2018-02-22T12:13:20.233Z,54976.00
2018-02-22T12:14:20.603Z,57056.00
2018-02-22T12:15:20.419Z,56352.00
2018-02-22T12:16:20.472Z,57088.00
2018-02-22T12:17:20.544Z,27072.00
2018-02-22T12:18:20.616Z,55808.00
2018-02-22T12:19:20.702Z,16732.00
2018-02-22T12:20:20.805Z,49632.00
2018-02-22T12:21:21.759Z,49472.00
2018-02-22T12:22:20.951Z,50560.00
2018-02-22T12:23:21.024Z,50464.00
2018-02-22T12:24:21.100Z,51328.00
2018-02-22T12:25:21.186Z,50464.00
2018-02-22T12:26:21.256Z,50880.00
2018-02-22T12:27:21.344Z,48352.00
2018-02-22T12:28:21.424Z,46112.00
2018-02-22T12:29:21.500Z,46784.00
2018-02-22T12:30:22.221Z,45728.00
2018-02-22T12:31:21.676Z,48352.00